Time;durP1;ratioP1;P1;durP2;ratioP2;P2;SDS_P1;SDS_P2;PMS_P1;PMS_P2;Temp;Humidity;BMP_temperature;BMP_pressure;BME280_temperature;BME280_humidity;BME280_pressure;Samples;Min_cycle;Max_cycle;Signal;HPM_P1;HPM_P2
2022/12/31 00:01:09;;;;;;;15.00;10.13;;;;;;;4.01;100.00;100277.41;1763328;79;21821;-66
2022/12/31 00:03:36;;;;;;;11.33;9.05;;;;;;;3.86;100.00;100280.95;1773487;79;20972;-66
2022/12/31 00:06:26;;;;;;;12.98;10.40;;;;;;;3.85;100.00;100290.06;1768166;80;21530;-66
2022/12/31 00:08:54;;;;;;;11.25;7.95;;;;;;;3.78;100.00;100290.52;1772483;79;20945;-66
2022/12/31 00:11:21;;;;;;;13.50;8.98;;;;;;;3.71;100.00;100294.02;1768557;80;20963;-67
2022/12/31 00:13:48;;;;;;;12.98;8.95;;;;;;;3.70;100.00;100294.90;1769213;79;21544;-66
2022/12/31 00:16:19;;;;;;;9.55;8.20;;;;;;;3.65;100.00;100300.55;1802559;78;21600;-66
2022/12/31 00:18:49;;;;;;;11.83;9.03;;;;;;;3.64;100.00;100295.79;1806678;78;21084;-66
2022/12/31 00:21:17;;;;;;;13.68;8.65;;;;;;;3.54;100.00;100297.13;1754246;80;21443;-65
2022/12/31 00:23:46;;;;;;;10.78;8.78;;;;;;;3.54;100.00;100299.72;1794505;78;21048;-65
2022/12/31 00:26:16;;;;;;;10.75;7.25;;;;;;;3.51;100.00;100292.81;1803984;78;21921;-65
2022/12/31 00:28:43;;;;;;;10.82;7.97;;;;;;;3.45;100.00;100292.84;1806062;78;21731;-66
2022/12/31 00:31:19;;;;;;;10.40;7.60;;;;;;;3.41;100.00;100304.98;1791003;78;21441;-65
2022/12/31 00:33:45;;;;;;;10.45;8.25;;;;;;;3.42;100.00;100308.44;1799552;78;22253;-65
2022/12/31 00:36:18;;;;;;;11.08;9.45;;;;;;;3.38;100.00;100310.18;1805349;78;21556;-65
2022/12/31 00:38:46;;;;;;;12.68;8.85;;;;;;;3.30;100.00;100310.20;1764099;80;21899;-65
2022/12/31 00:41:13;;;;;;;12.25;9.85;;;;;;;3.30;100.00;100312.80;1798022;78;22376;-66
2022/12/31 00:43:39;;;;;;;11.95;9.35;;;;;;;3.28;100.00;100310.64;1765295;80;21458;-60
2022/12/31 00:46:06;;;;;;;11.57;8.43;;;;;;;3.30;100.00;100309.34;1798543;78;21540;-64
2022/12/31 00:48:33;;;;;;;11.65;9.03;;;;;;;3.28;100.00;100316.28;1773437;80;21442;-65
2022/12/31 00:51:01;;;;;;;13.60;9.33;;;;;;;3.24;100.00;100321.03;1767018;80;21931;-65
2022/12/31 00:53:28;;;;;;;15.13;9.33;;;;;;;3.25;100.00;100319.73;1799427;78;21451;-65
2022/12/31 00:56:03;;;;;;;11.95;8.93;;;;;;;3.27;100.00;100315.39;1766835;80;21455;-65
2022/12/31 00:58:30;;;;;;;10.98;8.75;;;;;;;3.31;100.00;100307.16;1758367;80;20970;-65
2022/12/31 01:00:57;;;;;;;11.97;8.23;;;;;;;3.30;100.00;100318.44;1802360;78;21008;-65
2022/12/31 01:03:24;;;;;;;9.40;7.90;;;;;;;3.28;100.00;100319.73;1795765;78;21784;-65
2022/12/31 01:05:51;;;;;;;12.13;8.33;;;;;;;3.27;100.00;100324.49;1791786;77;21517;-65
2022/12/31 01:08:18;;;;;;;11.20;9.37;;;;;;;3.31;100.00;100337.05;1795415;78;21588;-64
2022/12/31 01:13:37;;;;;;;13.88;9.55;;;;;;;3.31;100.00;100345.73;1800370;78;21469;-64
2022/12/31 01:16:09;;;;;;;13.35;9.30;;;;;;;3.24;100.00;100347.02;1761282;79;21799;-64
2022/12/31 01:18:36;;;;;;;11.70;8.60;;;;;;;3.24;100.00;100344.42;1805786;78;21447;-64
2022/12/31 01:21:04;;;;;;;11.20;9.18;;;;;;;3.26;100.00;100342.27;1756733;79;21559;-64
2022/12/31 01:23:31;;;;;;;12.55;10.43;;;;;;;3.28;100.00;100340.98;1799526;78;21466;-64
2022/12/31 01:26:04;;;;;;;14.23;10.00;;;;;;;3.24;100.00;100339.22;1793760;78;21505;-64
2022/12/31 01:28:30;;;;;;;9.85;8.23;;;;;;;3.26;100.00;100344.88;1791403;78;21703;-63
2022/12/31 01:30:57;;;;;;;13.20;9.23;;;;;;;3.17;100.00;100342.73;1791698;78;21488;-63
2022/12/31 01:33:24;;;;;;;9.68;8.48;;;;;;;3.17;100.00;100342.73;1761993;80;21985;-64
2022/12/31 01:35:51;;;;;;;13.08;9.15;;;;;;;3.15;100.00;100342.72;1809348;78;21533;-64
2022/12/31 01:38:18;;;;;;;18.57;10.18;;;;;;;3.13;100.00;100343.16;1767813;79;21514;-63
2022/12/31 01:40:44;;;;;;;15.72;10.25;;;;;;;3.18;100.00;100340.54;1737327;81;22046;-64
2022/12/31 01:43:17;;;;;;;11.20;9.25;;;;;;;3.17;100.00;100342.28;1768968;80;21560;-64
2022/12/31 01:45:51;;;;;;;14.43;9.43;;;;;;;3.22;100.00;100339.66;1798115;78;21036;-64
2022/12/31 01:48:24;;;;;;;10.93;9.10;;;;;;;3.24;100.00;100328.83;1770578;80;21588;-63
2022/12/31 01:50:52;;;;;;;13.28;8.80;;;;;;;3.28;100.00;100335.78;1761338;80;21529;-63
2022/12/31 01:53:19;;;;;;;14.53;9.43;;;;;;;3.28;100.00;100340.98;1752603;80;22048;-64
2022/12/31 01:55:55;;;;;;;11.85;8.83;;;;;;;3.28;100.00;100334.48;1772857;79;21503;-64
2022/12/31 01:58:27;;;;;;;10.40;8.83;;;;;;;3.26;100.00;100334.92;1757995;80;21526;-64
2022/12/31 02:00:54;;;;;;;11.80;9.23;;;;;;;3.23;100.00;100334.47;1762020;79;21127;-65
2022/12/31 02:03:21;;;;;;;12.30;8.65;;;;;;;3.23;100.00;100337.52;1767091;80;21612;-65
2022/12/31 02:06:14;;;;;;;12.90;8.33;;;;;;;3.25;100.00;100330.58;1767430;80;21502;-65
2022/12/31 02:08:40;;;;;;;13.18;8.78;;;;;;;3.21;100.00;100330.16;1740738;80;20993;-65
2022/12/31 02:11:33;;;;;;;10.18;8.53;;;;;;;3.20;100.00;100337.09;1767820;80;21473;-65
2022/12/31 02:14:05;;;;;;;12.20;9.23;;;;;;;3.20;100.00;100334.49;1766038;78;21490;-65
2022/12/31 02:16:40;;;;;;;14.18;8.93;;;;;;;3.25;100.00;100343.56;1732145;82;21570;-65
2022/12/31 02:19:22;;;;;;;10.75;9.65;;;;;;;3.23;100.00;100346.16;1760553;79;21490;-65
2022/12/31 02:22:05;;;;;;;12.33;9.30;;;;;;;3.26;100.00;100345.31;1761799;80;21533;-65
2022/12/31 02:25:07;;;;;;;12.55;9.15;;;;;;;3.24;100.00;100358.72;1707777;81;21473;-64
2022/12/31 02:28:26;;;;;;;11.18;8.78;;;;;;;3.25;100.00;100357.42;1710505;81;21577;-65
2022/12/31 02:31:13;;;;;;;10.60;8.23;;;;;;;3.25;100.00;100353.52;1728063;81;21635;-67
2022/12/31 02:33:53;;;;;;;11.22;9.10;;;;;;;3.25;100.00;100356.13;1796816;77;21803;-67
2022/12/31 02:36:24;;;;;;;13.00;10.03;;;;;;;3.27;100.00;100354.83;1769887;80;21009;-67
2022/12/31 02:38:50;;;;;;;14.50;10.03;;;;;;;3.23;100.00;100355.26;1777421;78;21498;-67
2022/12/31 02:44:25;;;;;;;11.30;9.60;;;;;;;3.23;100.00;100359.60;1791539;78;21071;-67
2022/12/31 02:47:00;;;;;;;17.20;9.18;;;;;;;3.21;100.00;100358.30;1792183;78;22517;-67
2022/12/31 02:49:52;;;;;;;12.90;9.20;;;;;;;3.17;100.00;100357.02;1768411;80;21566;-67
2022/12/31 02:52:44;;;;;;;13.10;8.40;;;;;;;3.16;100.00;100355.27;1786454;78;21646;-66
2022/12/31 02:55:31;;;;;;;12.28;9.30;;;;;;;3.16;100.00;100358.73;1779476;78;21495;-67
2022/12/31 02:58:15;;;;;;;12.28;9.50;;;;;;;3.17;100.00;100366.12;1791140;78;21579;-67
2022/12/31 03:03:33;;;;;;;12.88;9.13;;;;;;;3.20;100.00;100369.58;1753218;80;21422;-67
2022/12/31 03:06:02;;;;;;;10.75;9.33;;;;;;;3.22;100.00;100373.45;1794177;77;21545;-69
2022/12/31 03:08:29;;;;;;;14.05;9.78;;;;;;;3.21;100.00;100363.50;1796924;78;21632;-67
2022/12/31 03:10:55;;;;;;;14.98;10.25;;;;;;;3.22;100.00;100370.44;1758150;80;21525;-67
2022/12/31 03:13:25;;;;;;;14.93;9.10;;;;;;;3.19;100.00;100372.17;1765517;80;21784;-67
2022/12/31 03:15:52;;;;;;;13.15;9.88;;;;;;;3.14;100.00;100367.41;1792710;78;21463;-68
2022/12/31 03:22:26;;;;;;;12.75;10.03;;;;;;;3.18;100.00;100364.78;1797749;77;21442;-67
2022/12/31 03:23:41;;;;;;;13.55;10.08;;;;;;;3.19;100.00;100369.58;1749728;80;21587;-68
2022/12/31 03:26:10;;;;;;;14.03;10.03;;;;;;;3.18;100.00;100380.83;1803259;78;21825;-69
2022/12/31 03:28:38;;;;;;;13.10;11.28;;;;;;;3.07;100.00;100380.41;1803500;78;21383;-69
2022/12/31 03:31:05;;;;;;;18.77;12.55;;;;;;;2.97;100.00;100383.86;1799410;77;20999;-68
2022/12/31 03:33:35;;;;;;;17.00;12.33;;;;;;;2.92;100.00;100378.68;1795697;78;21552;-68
2022/12/31 03:36:10;;;;;;;15.25;12.03;;;;;;;2.91;100.00;100379.97;1809217;78;21091;-67
2022/12/31 03:38:37;;;;;;;24.25;16.00;;;;;;;2.95;100.00;100381.70;1768773;79;21729;-68
2022/12/31 03:41:04;;;;;;;18.52;16.30;;;;;;;2.94;100.00;100389.08;1791507;78;21604;-68
2022/12/31 03:43:30;;;;;;;20.08;16.62;;;;;;;3.01;100.00;100392.52;1803004;78;20973;-71
2022/12/31 03:46:00;;;;;;;18.42;14.95;;;;;;;3.02;100.00;100386.03;1757683;79;21580;-68
2022/12/31 03:48:27;;;;;;;17.90;13.80;;;;;;;3.00;100.00;100390.81;1736143;81;21602;-69
2022/12/31 03:50:54;;;;;;;15.40;13.13;;;;;;;3.06;100.00;100384.30;1739156;80;21818;-70
2022/12/31 03:53:21;;;;;;;16.17;12.65;;;;;;;2.98;100.00;100388.20;1739871;81;21684;-70
2022/12/31 03:55:52;;;;;;;14.43;11.88;;;;;;;2.99;100.00;100382.13;1762352;79;21541;-70
2022/12/31 03:58:19;;;;;;;15.08;11.57;;;;;;;2.95;100.00;100383.00;1805992;77;21438;-69
2022/12/31 04:00:45;;;;;;;15.30;11.65;;;;;;;2.99;100.00;100387.31;1739754;81;21506;-70
2022/12/31 04:03:12;;;;;;;15.13;11.55;;;;;;;3.01;100.00;100393.37;1735930;79;21475;-70
2022/12/31 04:05:40;;;;;;;15.80;13.30;;;;;;;3.06;100.00;100390.36;1733749;81;21431;-70
2022/12/31 04:08:07;;;;;;;21.73;17.90;;;;;;;3.05;100.00;100392.54;1741398;81;21537;-70
2022/12/31 04:10:34;;;;;;;26.57;19.70;;;;;;;3.02;100.00;100395.56;1761525;80;21715;-67
2022/12/31 04:13:03;;;;;;;24.05;18.07;;;;;;;3.03;100.00;100393.39;1762965;80;21474;-67
2022/12/31 04:15:29;;;;;;;27.90;18.12;;;;;;;3.02;100.00;100390.38;1804797;77;21427;-68
2022/12/31 04:17:56;;;;;;;25.12;16.90;;;;;;;3.04;100.00;100394.69;1796961;78;21478;-67
2022/12/31 04:20:23;;;;;;;28.70;19.67;;;;;;;3.06;100.00;100395.99;1786235;78;21495;-67
2022/12/31 04:22:49;;;;;;;32.05;22.42;;;;;;;3.04;100.00;100391.23;1800241;78;21454;-68
2022/12/31 04:25:16;;;;;;;48.87;31.68;;;;;;;3.03;100.00;100389.08;1785178;78;21537;-68
2022/12/31 04:27:44;;;;;;;39.65;25.85;;;;;;;3.04;100.00;100394.69;1798836;78;22104;-68
2022/12/31 04:30:11;;;;;;;30.85;20.65;;;;;;;3.02;100.00;100397.72;1805939;78;21529;-67
2022/12/31 04:32:39;;;;;;;35.68;19.82;;;;;;;3.01;100.00;100395.12;1794397;78;21554;-68
2022/12/31 04:35:08;;;;;;;28.42;17.95;;;;;;;3.00;100.00;100398.16;1768897;80;21550;-68
2022/12/31 04:37:35;;;;;;;21.05;15.05;;;;;;;3.02;100.00;100396.42;1764472;80;20982;-68
2022/12/31 04:40:02;;;;;;;18.42;12.68;;;;;;;3.06;100.00;100407.25;1766615;80;21740;-67
2022/12/31 04:42:28;;;;;;;17.30;11.80;;;;;;;3.07;100.00;100401.61;1767058;80;21006;-68
2022/12/31 04:44:55;;;;;;;15.80;11.28;;;;;;;3.10;100.00;100407.67;1804020;78;23319;-68
2022/12/31 04:47:22;;;;;;;18.40;11.63;;;;;;;3.14;100.00;100409.84;1806004;78;21611;-68
2022/12/31 04:49:48;;;;;;;14.40;12.28;;;;;;;3.10;100.00;100412.02;1795400;78;21411;-67
2022/12/31 04:52:15;;;;;;;27.30;21.02;;;;;;;3.03;100.00;100410.27;1762610;79;21463;-67
2022/12/31 04:54:42;;;;;;;36.77;26.33;;;;;;;3.00;100.00;100415.49;1772177;79;21474;-67
2022/12/31 04:57:08;;;;;;;24.77;19.73;;;;;;;2.93;100.00;100419.36;1761831;78;22013;-67
2022/12/31 04:59:35;;;;;;;22.15;16.42;;;;;;;2.83;100.00;100420.67;1773166;80;21565;-67
2022/12/31 05:02:02;;;;;;;17.07;14.05;;;;;;;2.75;100.00;100431.46;1799832;78;21584;-67
2022/12/31 05:04:29;;;;;;;16.15;13.45;;;;;;;2.79;100.00;100430.59;1768709;79;21490;-67
2022/12/31 05:06:56;;;;;;;16.20;13.30;;;;;;;2.75;100.00;100433.65;1795452;78;21033;-67
2022/12/31 05:09:23;;;;;;;16.32;12.68;;;;;;;2.76;100.00;100444.89;1800059;78;21104;-67
2022/12/31 05:11:50;;;;;;;15.93;11.95;;;;;;;2.73;100.00;100444.44;1789471;78;21529;-67
2022/12/31 05:14:17;;;;;;;17.62;12.18;;;;;;;2.70;100.00;100444.45;1798694;77;20927;-67
2022/12/31 05:16:43;;;;;;;13.07;10.97;;;;;;;2.70;100.00;100445.75;1801459;78;21789;-68
2022/12/31 05:19:10;;;;;;;13.68;11.57;;;;;;;2.70;100.00;100454.84;1770045;80;21592;-68
2022/12/31 05:21:37;;;;;;;13.72;10.72;;;;;;;2.70;100.00;100467.82;1801509;78;21021;-69
2022/12/31 05:24:04;;;;;;;13.48;11.00;;;;;;;2.70;100.00;100467.82;1802545;78;21560;-68
2022/12/31 05:26:32;;;;;;;15.38;11.57;;;;;;;2.69;100.00;100472.56;1757502;80;21550;-67
2022/12/31 05:28:59;;;;;;;15.68;11.00;;;;;;;2.72;100.00;100460.90;1768826;79;21924;-67
2022/12/31 05:31:27;;;;;;;14.10;11.03;;;;;;;2.71;100.00;100466.53;1804328;78;21022;-61
2022/12/31 05:33:55;;;;;;;17.80;12.50;;;;;;;2.71;100.00;100470.84;1806921;78;21017;-62
2022/12/31 05:36:22;;;;;;;13.22;10.63;;;;;;;2.72;100.00;100464.35;1806309;78;21506;-61
2022/12/31 05:38:50;;;;;;;14.78;10.85;;;;;;;2.78;100.00;100461.34;1765019;79;21474;-62
2022/12/31 05:41:16;;;;;;;12.20;10.10;;;;;;;2.82;100.00;100453.98;1756243;80;21757;-61
2022/12/31 05:43:43;;;;;;;14.50;10.10;;;;;;;2.83;100.00;100449.24;1762295;80;21632;-62
2022/12/31 05:46:10;;;;;;;15.53;10.72;;;;;;;2.84;100.00;100447.92;1760110;79;21743;-63
2022/12/31 05:48:36;;;;;;;13.98;10.23;;;;;;;2.87;100.00;100444.04;1766475;79;21552;-62
2022/12/31 05:51:03;;;;;;;16.65;10.43;;;;;;;2.89;100.00;100444.05;1771891;79;21387;-63
2022/12/31 05:53:33;;;;;;;;;;;;;;;2.89;100.00;100441.45;1762171;79;21807;-60
2022/12/31 05:55:59;;;;;;;13.58;10.20;;;;;;;2.84;100.00;100447.06;1763992;80;20155;-60
2022/12/31 05:58:26;;;;;;;12.07;9.63;;;;;;;2.90;100.00;100447.06;1764870;79;21526;-60
2022/12/31 06:00:53;;;;;;;14.18;9.78;;;;;;;2.90;100.00;100446.66;1759278;80;21470;-60
2022/12/31 06:03:20;;;;;;;15.25;10.88;;;;;;;2.93;100.00;100447.08;1759126;80;21455;-59
2022/12/31 06:05:46;;;;;;;14.33;10.35;;;;;;;2.93;100.00;100450.97;1737900;80;21814;-60
2022/12/31 06:08:13;;;;;;;13.53;10.47;;;;;;;2.95;100.00;100454.44;1796626;77;21443;-60
2022/12/31 06:10:40;;;;;;;13.83;9.73;;;;;;;2.93;100.00;100445.34;1803381;78;21450;-59
2022/12/31 06:13:07;;;;;;;14.20;10.03;;;;;;;2.92;100.00;100447.96;1807489;78;21434;-61
2022/12/31 06:15:38;;;;;;;11.83;10.23;;;;;;;2.90;100.00;100449.25;1800960;77;21572;-59
2022/12/31 06:18:07;;;;;;;14.23;10.85;;;;;;;2.91;100.00;100448.81;1788144;78;21886;-59
2022/12/31 06:22:53;;;;;;;12.15;10.08;;;;;;;2.41;100.00;100435.27;1792238;79;23404;-61
2022/12/31 06:25:19;;;;;;;13.20;9.03;;;;;;;2.64;100.00;100451.80;1766221;80;21033;-61
2022/12/31 06:27:46;;;;;;;11.38;8.58;;;;;;;2.59;100.00;100448.31;1761588;80;21562;-60
2022/12/31 06:30:13;;;;;;;13.88;9.95;;;;;;;2.49;100.00;100446.56;1753303;80;21442;-61
2022/12/31 06:32:39;;;;;;;11.38;9.68;;;;;;;2.49;100.00;100449.16;1749107;80;21440;-61
2022/12/31 06:35:07;;;;;;;10.63;8.28;;;;;;;2.49;100.00;100453.05;1763297;80;21547;-61
2022/12/31 06:37:34;;;;;;;;;;;;;;;2.52;100.00;100459.53;1766625;80;21537;-62
2022/12/31 06:40:00;;;;;;;12.50;9.45;;;;;;;2.50;100.00;100465.16;1767362;80;21787;-61
2022/12/31 06:42:29;;;;;;;11.57;9.05;;;;;;;2.56;100.00;100461.27;1761563;80;21505;-60
2022/12/31 06:44:58;;;;;;;10.72;8.18;;;;;;;2.56;100.00;100466.46;1760283;80;21594;-60
2022/12/31 06:47:24;;;;;;;13.95;9.30;;;;;;;2.61;100.00;100467.80;1759915;80;21591;-60
2022/12/31 06:49:51;;;;;;;13.93;10.93;;;;;;;2.63;100.00;100464.77;1757702;80;21584;-60
2022/12/31 06:52:18;;;;;;;13.62;10.05;;;;;;;2.68;100.00;100471.70;1761089;80;21817;-60
2022/12/31 06:54:46;;;;;;;12.10;9.88;;;;;;;2.78;100.00;100474.33;1762035;80;21648;-60
2022/12/31 06:57:14;;;;;;;14.33;11.25;;;;;;;2.78;100.00;100473.03;1767503;80;21478;-59
2022/12/31 06:59:42;;;;;;;14.35;10.25;;;;;;;2.79;100.00;100471.74;1763016;80;21462;-61
2022/12/31 07:02:49;;;;;;;14.13;9.48;;;;;;;2.82;100.00;100475.62;1765855;80;21498;-60
2022/12/31 07:05:42;;;;;;;13.50;11.00;;;;;;;2.85;100.00;100478.23;1737203;80;22039;-61
2022/12/31 07:08:37;;;;;;;13.10;10.55;;;;;;;2.87;100.00;100490.80;1698375;80;20961;-59
2022/12/31 07:11:15;;;;;;;13.30;10.90;;;;;;;2.90;100.00;100488.63;1770475;80;21044;-60
2022/12/31 07:14:12;;;;;;;12.88;9.88;;;;;;;2.93;100.00;100488.64;1753164;80;21481;-60
2022/12/31 07:16:54;;;;;;;11.57;9.93;;;;;;;2.98;100.00;100483.03;1750757;80;21475;-64
2022/12/31 07:20:07;;;;;;;13.30;10.72;;;;;;;3.03;100.00;100489.52;1753989;80;21885;-61
2022/12/31 07:22:35;;;;;;;12.93;10.10;;;;;;;3.10;100.00;100475.67;1743710;80;21490;-60
2022/12/31 07:25:03;;;;;;;13.30;10.40;;;;;;;3.10;100.00;100473.08;1745127;80;21474;-60
2022/12/31 07:28:17;;;;;;;11.68;10.10;;;;;;;3.11;100.00;100474.38;1742242;80;21514;-60
2022/12/31 07:31:32;;;;;;;14.23;10.28;;;;;;;3.19;100.00;100476.12;1751069;80;22002;-59
2022/12/31 07:34:09;;;;;;;13.15;10.23;;;;;;;3.30;100.00;100483.05;1741626;80;21937;-61
2022/12/31 07:37:07;;;;;;;13.38;10.25;;;;;;;3.38;100.00;100483.05;1740650;80;21538;-64
2022/12/31 07:39:50;;;;;;;12.03;9.73;;;;;;;3.43;100.00;100489.13;1752782;80;21626;-60
2022/12/31 07:42:22;;;;;;;13.13;10.38;;;;;;;3.42;100.00;100486.08;1743866;80;21553;-59
2022/12/31 07:45:00;;;;;;;13.05;10.48;;;;;;;3.49;100.00;100485.22;1739911;80;21459;-59
2022/12/31 07:47:28;;;;;;;11.85;10.08;;;;;;;3.61;100.00;100484.78;1695054;83;22047;-59
2022/12/31 07:49:55;;;;;;;13.58;11.20;;;;;;;3.69;100.00;100484.33;1741187;80;21602;-58
2022/12/31 07:52:23;;;;;;;15.30;10.60;;;;;;;3.77;100.00;100486.50;1746810;80;21490;-58
2022/12/31 07:54:49;;;;;;;12.15;10.70;;;;;;;3.82;100.00;100487.78;1746120;80;21632;-58
2022/12/31 07:57:18;;;;;;;15.85;11.48;;;;;;;3.87;100.00;100480.84;1752970;80;21490;-59
2022/12/31 08:00:03;;;;;;;15.50;11.83;;;;;;;3.93;100.00;100482.13;1747689;80;21529;-59
2022/12/31 08:03:04;;;;;;;16.63;13.27;;;;;;;4.08;100.00;100487.72;1744594;80;21424;-59
2022/12/31 08:05:54;;;;;;;17.60;13.30;;;;;;;4.22;100.00;100496.78;1743665;80;21548;-60
2022/12/31 08:08:42;;;;;;;19.07;13.48;;;;;;;4.30;100.00;100501.55;1620183;86;21030;-61
2022/12/31 08:11:27;;;;;;;17.07;13.13;;;;;;;4.42;100.00;100504.09;1630328;86;21652;-61
2022/12/31 08:13:57;;;;;;;14.63;12.00;;;;;;;4.57;100.00;100508.37;1623993;86;21811;-62
2022/12/31 08:16:25;;;;;;;16.05;12.25;;;;;;;4.62;100.00;100507.92;1626452;86;21034;-58
2022/12/31 08:18:53;;;;;;;14.33;11.30;;;;;;;4.70;100.00;100500.52;1624664;86;21514;-59
2022/12/31 08:22:00;;;;;;;15.53;12.55;;;;;;;4.77;100.00;100492.66;1631044;86;21589;-59
2022/12/31 08:24:54;;;;;;;16.52;12.15;;;;;;;4.89;100.00;100493.02;1595747;88;21619;-59
2022/12/31 08:27:39;;;;;;;14.43;12.23;;;;;;;5.07;100.00;100492.91;1598386;88;21786;-63
2022/12/31 08:30:11;;;;;;;12.90;11.30;;;;;;;5.20;100.00;100493.69;1626205;86;21525;-60
2022/12/31 08:32:56;;;;;;;14.63;12.15;;;;;;;5.32;100.00;100493.17;1603931;87;21549;-61
2022/12/31 08:35:58;;;;;;;17.40;11.53;;;;;;;5.45;100.00;100495.66;1622232;86;21539;-59
2022/12/31 08:38:43;;;;;;;13.93;11.45;;;;;;;5.49;100.00;100479.99;1624430;86;21448;-59
2022/12/31 08:41:36;;;;;;;14.33;11.12;;;;;;;5.60;100.00;100478.16;1618024;86;21768;-59
2022/12/31 08:44:41;;;;;;;12.68;10.45;;;;;;;5.74;100.00;100476.71;1548643;90;21697;-59
2022/12/31 08:47:28;;;;;;;13.80;10.38;;;;;;;5.89;100.00;100470.47;1526493;91;21492;-60
2022/12/31 08:49:56;;;;;;;12.88;9.70;;;;;;;5.99;100.00;100476.04;1569787;87;21587;-60
2022/12/31 08:52:24;;;;;;;13.68;10.45;;;;;;;6.10;100.00;100468.09;1632844;86;21065;-60
2022/12/31 08:54:51;;;;;;;;;;;;;;;6.20;100.00;100468.44;1629026;86;21699;-60
2022/12/31 08:57:39;;;;;;;14.40;9.93;;;;;;;6.19;100.00;100462.78;1627550;87;24183;-62
2022/12/31 09:00:12;;;;;;;13.32;10.75;;;;;;;6.30;100.00;100460.05;1632611;86;21546;-57
2022/12/31 09:03:04;;;;;;;13.50;9.85;;;;;;;6.35;100.00;100459.10;1626355;86;21581;-58
2022/12/31 09:05:49;;;;;;;13.45;9.23;;;;;;;6.42;100.00;100449.00;1626457;86;21542;-59
2022/12/31 09:08:37;;;;;;;12.53;10.88;;;;;;;6.52;100.00;100443.66;1577832;89;22086;-58
2022/12/31 09:11:15;;;;;;;18.50;12.90;;;;;;;6.56;100.00;100433.14;1626096;86;21562;-58
2022/12/31 09:14:07;;;;;;;16.37;12.03;;;;;;;6.66;100.00;100432.56;1595195;87;21541;-57
2022/12/31 09:17:09;;;;;;;11.85;10.28;;;;;;;6.79;100.00;100426.72;1623020;86;21065;-59
2022/12/31 09:19:35;;;;;;;12.70;9.65;;;;;;;6.84;100.00;100420.98;1594606;87;21637;-58
2022/12/31 09:22:03;;;;;;;15.25;10.30;;;;;;;6.86;100.00;100431.42;1599679;88;21534;-59
2022/12/31 09:24:30;;;;;;;13.05;9.43;;;;;;;6.90;100.00;100427.42;1573883;89;21622;-58
2022/12/31 09:27:03;;;;;;;12.28;9.83;;;;;;;6.94;100.00;100425.62;1627384;86;21581;-58
2022/12/31 09:30:00;;;;;;;15.08;10.45;;;;;;;6.97;100.00;100424.28;1594820;88;21518;-58
2022/12/31 09:32:35;;;;;;;12.88;9.10;;;;;;;7.09;100.00;100430.61;1601294;88;21478;-58
2022/12/31 09:35:25;;;;;;;13.60;10.55;;;;;;;7.24;100.00;100416.42;1590180;88;22064;-58
2022/12/31 09:37:57;;;;;;;14.53;9.80;;;;;;;7.40;100.00;100413.08;1601480;88;21590;-58
2022/12/31 09:41:03;;;;;;;16.30;9.60;;;;;;;7.53;100.00;100405.43;1601583;88;21514;-58
2022/12/31 09:44:11;;;;;;;11.18;8.68;;;;;;;7.67;100.00;100405.66;1528531;91;21077;-58
2022/12/31 09:47:14;;;;;;;13.25;9.00;;;;;;;7.80;100.00;100407.14;1565886;89;21684;-58
2022/12/31 09:49:52;;;;;;;10.75;8.55;;;;;;;7.91;100.00;100416.08;1596335;88;21799;-61
2022/12/31 09:52:53;;;;;;;9.50;7.87;;;;;;;8.00;100.00;100421.13;1600584;88;21573;-58
2022/12/31 09:55:48;;;;;;;11.22;8.98;;;;;;;8.07;100.00;100418.81;1597120;88;21567;-59
2022/12/31 09:58:59;;;;;;;11.48;8.18;;;;;;;8.15;100.00;100406.87;1628505;86;21489;-58
2022/12/31 10:01:49;;;;;;;10.90;8.03;;;;;;;8.23;100.00;100403.66;1571793;89;21562;-58
2022/12/31 10:05:00;;;;;;;10.53;8.93;;;;;;;8.36;100.00;100385.89;1596430;88;22211;-58
2022/12/31 10:07:43;;;;;;;10.50;8.00;;;;;;;8.41;100.00;100367.02;1587535;87;21541;-60
2022/12/31 10:10:57;;;;;;;10.93;7.58;;;;;;;8.43;100.00;100360.47;1580094;88;21616;-58
2022/12/31 10:13:45;;;;;;;9.80;8.10;;;;;;;8.47;100.00;100365.59;1588183;88;21483;-57
2022/12/31 10:16:29;;;;;;;13.40;9.33;;;;;;;8.51;100.00;100361.14;1574140;89;21583;-59
2022/12/31 10:19:19;;;;;;;12.28;8.88;;;;;;;8.62;100.00;100350.42;1585260;86;21786;-57
2022/12/31 10:22:08;;;;;;;11.73;9.23;;;;;;;8.75;100.00;100347.91;1617002;86;21619;-57
2022/12/31 10:25:17;;;;;;;12.73;9.80;;;;;;;8.91;100.00;100342.72;1616903;86;21579;-56
2022/12/31 10:28:02;;;;;;;12.00;9.10;;;;;;;8.98;100.00;100337.31;1603745;86;21601;-57
2022/12/31 10:30:32;;;;;;;10.25;8.70;;;;;;;8.94;100.00;100328.20;1619091;86;21606;-57
2022/12/31 10:33:33;;;;;;;10.45;8.78;;;;;;;8.87;100.00;100321.41;1621090;86;21791;-58
2022/12/31 10:36:21;;;;;;;12.20;9.18;;;;;;;8.89;100.00;100327.47;1624349;86;21626;-58
2022/12/31 10:39:24;;;;;;;12.07;10.03;;;;;;;8.96;100.00;100329.02;1612958;86;21569;-58
2022/12/31 10:42:34;;;;;;;14.15;10.28;;;;;;;9.06;100.00;100327.05;1612256;86;21572;-59
2022/12/31 10:45:22;;;;;;;13.58;10.95;;;;;;;9.24;100.00;100318.28;1614122;86;21629;-58
2022/12/31 10:48:09;;;;;;;12.53;9.63;;;;;;;9.33;100.00;100316.27;1618156;86;22099;-58
2022/12/31 10:51:10;;;;;;;12.50;9.55;;;;;;;9.28;100.00;100318.14;1616977;86;21694;-57
2022/12/31 10:53:51;;;;;;;12.60;8.78;;;;;;;9.15;100.00;100304.94;1621611;86;21609;-59
2022/12/31 10:57:07;;;;;;;10.85;9.03;;;;;;;9.09;100.00;100295.92;1622795;86;21002;-60
2022/12/31 11:00:05;;;;;;;10.20;8.00;;;;;;;9.06;100.00;100295.56;1612968;86;21623;-59
2022/12/31 11:02:41;;;;;;;11.85;8.08;;;;;;;9.10;100.00;100296.35;1624440;86;22021;-60
2022/12/31 11:06:05;;;;;;;9.73;7.40;;;;;;;9.11;100.00;100300.22;1622775;86;21473;-59
2022/12/31 11:09:04;;;;;;;14.18;8.05;;;;;;;9.18;100.00;100315.36;1569041;88;21642;-59
2022/12/31 11:11:57;;;;;;;10.78;8.73;;;;;;;9.19;100.00;100309.20;1570656;88;21653;-60
2022/12/31 11:15:18;;;;;;;11.22;8.23;;;;;;;9.20;100.00;100300.90;1660733;84;21492;-60
2022/12/31 11:18:21;;;;;;;9.60;7.70;;;;;;;9.16;100.00;100294.87;1665570;84;21858;-58
2022/12/31 11:21:14;;;;;;;10.03;8.33;;;;;;;9.11;100.00;100283.17;1570584;88;21541;-58
2022/12/31 11:24:38;;;;;;;9.88;7.80;;;;;;;9.11;100.00;100286.25;1586215;88;21593;-59
2022/12/31 11:27:23;;;;;;;10.18;8.05;;;;;;;9.13;100.00;100285.75;1661946;84;21531;-59
2022/12/31 11:30:33;;;;;;;11.20;8.23;;;;;;;9.12;100.00;100287.98;1667498;84;21521;-58
2022/12/31 11:33:31;;;;;;;10.30;7.70;;;;;;;9.14;100.00;100291.42;1666690;84;21621;-59
2022/12/31 11:36:45;;;;;;;13.60;8.43;;;;;;;9.12;100.00;100291.92;1663883;84;21576;-60
2022/12/31 11:39:49;;;;;;;11.28;8.28;;;;;;;9.08;100.00;100288.52;1665141;84;21505;-58
2022/12/31 11:42:51;;;;;;;10.72;8.00;;;;;;;9.06;100.00;100288.13;1673063;84;21566;-58
2022/12/31 11:45:49;;;;;;;11.75;8.30;;;;;;;9.11;100.00;100281.00;1668358;84;21562;-58
2022/12/31 11:48:38;;;;;;;13.32;9.20;;;;;;;9.07;100.00;100276.28;1667117;84;21805;-59
2022/12/31 11:51:36;;;;;;;10.40;9.23;;;;;;;9.05;100.00;100272.84;1662564;85;21073;-59
2022/12/31 11:54:58;;;;;;;11.57;8.98;;;;;;;9.07;100.00;100284.61;1666479;84;21496;-59
2022/12/31 11:57:37;;;;;;;12.70;9.18;;;;;;;9.05;100.00;100274.16;1668820;84;21012;-58
2022/12/31 12:00:23;;;;;;;13.35;9.45;;;;;;;9.01;100.00;100269.05;1667611;85;21053;-59
2022/12/31 12:03:01;;;;;;;13.60;9.50;;;;;;;8.95;100.00;100277.48;1623819;85;21601;-59
2022/12/31 12:05:28;;;;;;;12.65;9.35;;;;;;;8.98;100.00;100268.66;1664101;85;21486;-59
2022/12/31 12:07:55;;;;;;;10.33;9.23;;;;;;;8.99;100.00;100268.23;1668366;85;21936;-59
2022/12/31 12:10:26;;;;;;;10.25;9.08;;;;;;;8.99;100.00;100266.46;1663691;85;21469;-59
2022/12/31 12:12:54;;;;;;;12.05;9.08;;;;;;;9.02;100.00;100261.11;1667273;84;21570;-58
2022/12/31 12:15:27;;;;;;;10.13;8.75;;;;;;;9.06;100.00;100257.95;1655437;84;21785;-57